createdAt,value
2023-01-28T00:01:17.492Z,0.78
2023-01-28T00:03:45.478Z,0.79
2023-01-28T00:06:15.423Z,0.81
2023-01-28T00:08:43.428Z,0.83
2023-01-28T00:11:13.387Z,0.82
2023-01-28T00:13:42.227Z,0.81
2023-01-28T00:16:10.390Z,0.82
2023-01-28T00:18:38.581Z,0.81
2023-01-28T00:21:14.457Z,0.81
2023-01-28T00:23:47.225Z,0.82
2023-01-28T00:26:15.625Z,0.82
2023-01-28T00:28:44.186Z,0.81
2023-01-28T00:31:20.844Z,0.78
2023-01-28T00:33:50.361Z,0.77
2023-01-28T00:36:19.899Z,0.76
2023-01-28T00:38:58.977Z,0.72
2023-01-28T00:41:29.351Z,0.64
2023-01-28T00:43:57.722Z,0.59
2023-01-28T00:46:28.823Z,0.57
2023-01-28T00:48:56.748Z,0.59
2023-01-28T00:51:24.721Z,0.66
2023-01-28T00:53:54.015Z,0.69
2023-01-28T00:56:21.990Z,0.70
2023-01-28T00:58:49.977Z,0.73
2023-01-28T01:01:21.229Z,0.77
2023-01-28T01:03:57.667Z,0.81
2023-01-28T01:06:25.969Z,0.83
2023-01-28T01:08:53.906Z,0.86
2023-01-28T01:11:21.765Z,0.89
2023-01-28T01:13:58.755Z,0.91
2023-01-28T01:16:30.089Z,0.91
2023-01-28T01:18:59.315Z,0.90
2023-01-28T01:21:29.692Z,0.91
2023-01-28T01:23:58.039Z,0.92
2023-01-28T01:26:27.790Z,0.92
2023-01-28T01:28:56.375Z,0.89
2023-01-28T01:31:24.480Z,0.89
2023-01-28T01:33:53.433Z,0.87
2023-01-28T01:36:22.251Z,0.84
2023-01-28T01:38:54.866Z,0.83
2023-01-28T01:41:31.109Z,0.81
2023-01-28T01:44:04.925Z,0.83
2023-01-28T01:46:41.985Z,0.83
2023-01-28T01:49:17.933Z,0.83
2023-01-28T01:51:48.998Z,0.83
2023-01-28T01:54:18.810Z,0.83
2023-01-28T01:56:49.673Z,0.83
2023-01-28T01:59:24.366Z,0.84
2023-01-28T02:01:52.822Z,0.86
2023-01-28T02:04:27.575Z,0.86
2023-01-28T02:06:56.923Z,0.86
2023-01-28T02:09:32.481Z,0.86
2023-01-28T02:12:05.104Z,0.83
2023-01-28T02:14:37.435Z,0.80
2023-01-28T02:17:05.615Z,0.75
2023-01-28T02:20:01.366Z,0.75
2023-01-28T02:22:32.310Z,0.73
2023-01-28T02:25:27.989Z,0.72
2023-01-28T02:28:15.155Z,0.68
2023-01-28T02:30:54.289Z,0.63
2023-01-28T02:33:26.887Z,0.58
2023-01-28T02:35:55.746Z,0.54
2023-01-28T02:38:31.637Z,0.51
2023-01-28T02:41:06.977Z,0.48
2023-01-28T02:43:46.249Z,0.44
2023-01-28T02:46:54.376Z,0.39
2023-01-28T02:49:33.912Z,0.31
2023-01-28T02:52:10.872Z,0.29
2023-01-28T02:55:06.825Z,0.29
2023-01-28T02:57:47.543Z,0.30
2023-01-28T03:00:35.668Z,0.34
2023-01-28T03:03:06.392Z,0.37
2023-01-28T03:05:41.439Z,0.38
2023-01-28T03:08:37.337Z,0.35
2023-01-28T03:11:24.026Z,0.32
2023-01-28T03:14:10.554Z,0.34
2023-01-28T03:16:57.402Z,0.39
2023-01-28T03:19:43.806Z,0.46
2023-01-28T03:22:30.549Z,0.52
2023-01-28T03:25:19.279Z,0.57
2023-01-28T03:28:21.189Z,0.59
2023-01-28T03:31:17.702Z,0.64
2023-01-28T03:34:04.320Z,0.68
2023-01-28T03:36:48.551Z,0.66
2023-01-28T03:39:17.645Z,0.59
2023-01-28T03:42:08.222Z,0.57
2023-01-28T03:44:55.243Z,0.58
2023-01-28T03:47:25.874Z,0.57
2023-01-28T03:49:56.426Z,0.54
2023-01-28T03:52:30.492Z,0.52
2023-01-28T03:54:58.539Z,0.50
2023-01-28T03:57:28.191Z,0.50
2023-01-28T03:59:56.136Z,0.50
2023-01-28T04:02:24.063Z,0.47
2023-01-28T04:04:51.955Z,0.46
2023-01-28T04:07:19.916Z,0.50
2023-01-28T04:09:47.806Z,0.53
2023-01-28T04:12:16.069Z,0.55
2023-01-28T04:14:44.355Z,0.56
2023-01-28T04:17:12.284Z,0.59
2023-01-28T04:19:40.488Z,0.61
2023-01-28T04:22:11.343Z,0.65
2023-01-28T04:24:39.920Z,0.70
2023-01-28T04:27:07.703Z,0.71
2023-01-28T04:29:35.589Z,0.67
2023-01-28T04:32:03.575Z,0.65
2023-01-28T04:34:31.445Z,0.61
2023-01-28T04:36:59.323Z,0.58
2023-01-28T04:39:27.314Z,0.57
2023-01-28T04:41:55.207Z,0.58
2023-01-28T04:44:23.122Z,0.61
2023-01-28T04:46:50.936Z,0.65
2023-01-28T04:49:18.800Z,0.65
2023-01-28T04:51:46.788Z,0.65
2023-01-28T04:54:14.682Z,0.64
2023-01-28T04:56:42.594Z,0.62
2023-01-28T04:59:10.505Z,0.61
2023-01-28T05:01:38.436Z,0.58
2023-01-28T05:04:06.312Z,0.56
2023-01-28T05:06:34.618Z,0.53
2023-01-28T05:09:02.582Z,0.52
2023-01-28T05:11:30.867Z,0.55
2023-01-28T05:13:58.734Z,0.58
2023-01-28T05:16:26.618Z,0.60
2023-01-28T05:18:54.419Z,0.61
2023-01-28T05:21:22.336Z,0.62
2023-01-28T05:23:50.217Z,0.63
2023-01-28T05:26:18.167Z,0.65
2023-01-28T05:28:46.734Z,0.68
2023-01-28T05:31:14.729Z,0.72
2023-01-28T05:33:42.540Z,0.76
2023-01-28T05:36:10.486Z,0.78
2023-01-28T05:38:38.596Z,0.79
2023-01-28T05:41:06.669Z,0.78
2023-01-28T05:43:34.572Z,0.75
2023-01-28T05:46:02.669Z,0.73
2023-01-28T05:48:30.633Z,0.72
2023-01-28T05:50:58.958Z,0.73
2023-01-28T05:53:26.945Z,0.71
2023-01-28T05:55:54.778Z,0.68
2023-01-28T05:58:23.072Z,0.66
2023-01-28T06:00:51.009Z,0.66
2023-01-28T06:03:18.904Z,0.66
2023-01-28T06:05:48.546Z,0.68
2023-01-28T06:08:16.553Z,0.69
2023-01-28T06:10:44.447Z,0.70
2023-01-28T06:13:12.563Z,0.69
2023-01-28T06:15:40.444Z,0.70
2023-01-28T06:18:08.391Z,0.73
2023-01-28T06:20:36.298Z,0.74
2023-01-28T06:23:04.312Z,0.74
2023-01-28T06:25:32.234Z,0.75
2023-01-28T06:28:00.256Z,0.76
2023-01-28T06:30:28.084Z,0.78
2023-01-28T06:32:56.204Z,0.81
2023-01-28T06:35:24.504Z,0.82
2023-01-28T06:37:54.605Z,0.84
2023-01-28T06:40:26.054Z,0.87
2023-01-28T06:42:54.068Z,0.90
2023-01-28T06:45:22.019Z,0.91
2023-01-28T06:47:49.847Z,0.92
2023-01-28T06:50:18.084Z,0.93
2023-01-28T06:52:46.265Z,0.95
2023-01-28T06:55:14.233Z,0.97
2023-01-28T06:57:42.760Z,0.98
2023-01-28T07:00:13.684Z,1.01
2023-01-28T07:02:42.343Z,1.05
2023-01-28T07:05:11.156Z,1.07
2023-01-28T07:07:41.741Z,1.10
2023-01-28T07:10:10.894Z,1.14
2023-01-28T07:12:39.567Z,1.15
2023-01-28T07:15:08.637Z,1.17
2023-01-28T07:17:39.653Z,1.19
2023-01-28T07:20:09.158Z,1.20
2023-01-28T07:22:39.562Z,1.22
2023-01-28T07:25:08.857Z,1.23
2023-01-28T07:27:36.978Z,1.22
2023-01-28T07:30:05.502Z,1.22
2023-01-28T07:32:33.522Z,1.21
2023-01-28T07:35:01.384Z,1.22
2023-01-28T07:37:29.200Z,1.21
2023-01-28T07:39:57.008Z,1.20
2023-01-28T07:42:24.878Z,1.20
2023-01-28T07:44:52.747Z,1.20
2023-01-28T07:47:20.759Z,1.21
2023-01-28T07:49:48.736Z,1.23
2023-01-28T07:52:16.748Z,1.21
2023-01-28T07:54:44.600Z,1.19
2023-01-28T07:57:12.501Z,1.20
2023-01-28T07:59:40.354Z,1.22
2023-01-28T08:02:11.994Z,1.25
2023-01-28T08:04:40.755Z,1.29
2023-01-28T08:07:08.738Z,1.32
2023-01-28T08:09:36.617Z,1.34
2023-01-28T08:12:04.918Z,1.34
2023-01-28T08:14:32.812Z,1.33
2023-01-28T08:17:00.878Z,1.33
2023-01-28T08:19:28.803Z,1.32
2023-01-28T08:21:56.718Z,1.36
2023-01-28T08:24:24.589Z,1.41
2023-01-28T08:26:52.555Z,1.46
2023-01-28T08:29:20.539Z,1.50
2023-01-28T08:31:48.546Z,1.52
2023-01-28T08:34:16.489Z,1.52
2023-01-28T08:36:44.367Z,1.54
2023-01-28T08:39:12.388Z,1.58
2023-01-28T08:41:40.279Z,1.61
2023-01-28T08:44:08.183Z,1.58
2023-01-28T08:46:36.132Z,1.57
2023-01-28T08:49:04.060Z,1.57
2023-01-28T08:51:31.870Z,1.54
2023-01-28T08:54:00.594Z,1.55
2023-01-28T08:56:28.616Z,1.60
2023-01-28T08:58:56.585Z,1.65
2023-01-28T09:01:26.217Z,1.71
2023-01-28T09:03:54.162Z,1.77
2023-01-28T09:06:22.161Z,1.84
2023-01-28T09:08:50.193Z,1.90
2023-01-28T09:11:18.119Z,1.92
2023-01-28T09:13:46.057Z,1.92
2023-01-28T09:16:14.375Z,1.89
2023-01-28T09:18:42.340Z,1.82
2023-01-28T09:21:10.703Z,1.74
2023-01-28T09:23:39.087Z,1.72
2023-01-28T09:26:07.365Z,1.76
2023-01-28T09:28:35.590Z,1.80
2023-01-28T09:31:09.155Z,1.82
2023-01-28T09:33:39.030Z,1.85
2023-01-28T09:36:08.757Z,1.88
2023-01-28T09:38:36.754Z,1.87
2023-01-28T09:41:28.520Z,1.78
2023-01-28T09:44:15.608Z,1.65
2023-01-28T09:46:45.695Z,1.61
2023-01-28T09:49:24.540Z,1.60
2023-01-28T09:51:55.435Z,1.58
2023-01-28T09:54:44.692Z,1.58
2023-01-28T09:57:21.112Z,1.61
2023-01-28T09:59:49.865Z,1.62
2023-01-28T10:02:30.067Z,1.60
2023-01-28T10:05:26.732Z,1.61
2023-01-28T10:08:26.653Z,1.63
2023-01-28T10:11:04.903Z,1.64
2023-01-28T10:13:53.009Z,1.65
2023-01-28T10:16:38.526Z,1.68
2023-01-28T10:19:23.471Z,1.69
2023-01-28T10:21:57.541Z,1.69
2023-01-28T10:25:06.790Z,1.70
2023-01-28T10:27:37.551Z,1.73
2023-01-28T10:30:22.466Z,1.78
2023-01-28T10:32:55.570Z,1.82
2023-01-28T10:35:24.255Z,1.85
2023-01-28T10:38:02.682Z,1.86
2023-01-28T10:40:30.610Z,1.85
2023-01-28T10:42:58.573Z,1.86
2023-01-28T10:45:38.230Z,1.88
2023-01-28T10:48:23.246Z,1.87
2023-01-28T10:51:02.779Z,1.85
2023-01-28T10:53:38.500Z,1.85
2023-01-28T10:56:26.731Z,1.85
2023-01-28T10:59:17.903Z,1.86
2023-01-28T11:01:50.076Z,1.86
2023-01-28T11:04:27.141Z,1.85
2023-01-28T11:07:02.368Z,1.84
2023-01-28T11:09:38.047Z,1.83
2023-01-28T11:12:20.649Z,1.82
2023-01-28T11:15:03.850Z,1.82
2023-01-28T11:17:36.115Z,1.84
2023-01-28T11:20:21.225Z,1.87
2023-01-28T11:22:50.477Z,1.89
2023-01-28T11:25:21.027Z,1.92
2023-01-28T11:27:51.513Z,1.93
2023-01-28T11:30:25.678Z,1.93
2023-01-28T11:33:24.001Z,1.93
2023-01-28T11:35:57.660Z,1.98
2023-01-28T11:38:26.564Z,2.03
2023-01-28T11:40:56.789Z,2.05
2023-01-28T11:43:30.717Z,2.05
2023-01-28T11:46:20.148Z,2.07
2023-01-28T11:49:21.879Z,2.09
2023-01-28T11:52:32.044Z,2.10
2023-01-28T11:55:44.324Z,2.07
2023-01-28T11:58:27.425Z,2.06
2023-01-28T12:01:24.931Z,2.08
2023-01-28T12:04:11.149Z,2.06
2023-01-28T12:07:27.548Z,2.02
2023-01-28T12:10:09.846Z,2.01
2023-01-28T12:12:43.442Z,1.99
2023-01-28T12:15:41.694Z,1.95
2023-01-28T12:18:37.019Z,1.95
2023-01-28T12:21:08.300Z,1.96
2023-01-28T12:23:57.725Z,1.94
2023-01-28T12:26:42.753Z,1.90
2023-01-28T12:29:34.474Z,1.88
2023-01-28T12:32:08.348Z,1.89
2023-01-28T12:34:53.395Z,1.88
2023-01-28T12:37:33.474Z,1.82
2023-01-28T12:40:04.031Z,1.78
2023-01-28T12:42:46.958Z,1.77
2023-01-28T12:45:26.540Z,1.75
2023-01-28T12:48:02.568Z,1.72
2023-01-28T12:50:39.445Z,1.70
2023-01-28T12:53:40.868Z,1.69
2023-01-28T12:56:16.894Z,1.66
2023-01-28T12:58:47.733Z,1.65
2023-01-28T13:01:23.295Z,1.67
2023-01-28T13:04:39.993Z,1.72
2023-01-28T13:07:17.324Z,1.78
2023-01-28T13:09:53.925Z,1.83
2023-01-28T13:12:22.802Z,1.86
2023-01-28T13:14:54.058Z,1.87
2023-01-28T13:17:26.981Z,1.87
2023-01-28T13:19:55.039Z,1.85
2023-01-28T13:22:37.533Z,1.83
2023-01-28T13:25:28.064Z,1.81
2023-01-28T13:27:59.829Z,1.82
2023-01-28T13:30:31.035Z,1.83
2023-01-28T13:33:05.673Z,1.83
2023-01-28T13:35:37.554Z,1.81
2023-01-28T13:38:19.720Z,1.78
2023-01-28T13:41:00.945Z,1.75
2023-01-28T13:43:41.048Z,1.74
2023-01-28T13:46:26.383Z,1.76
2023-01-28T13:48:57.674Z,1.77
2023-01-28T13:51:31.622Z,1.79
2023-01-28T13:54:04.406Z,1.82
2023-01-28T13:56:42.467Z,1.86
2023-01-28T13:59:31.999Z,1.88
2023-01-28T14:02:14.123Z,1.87
2023-01-28T14:05:17.908Z,1.86
2023-01-28T14:08:19.319Z,1.88
2023-01-28T14:11:15.817Z,1.92
2023-01-28T14:14:08.888Z,1.94
2023-01-28T14:16:52.075Z,1.96
2023-01-28T14:19:44.711Z,1.97
2023-01-28T14:22:19.670Z,1.95
2023-01-28T14:24:48.617Z,1.92
2023-01-28T14:27:38.626Z,1.87
2023-01-28T14:30:25.874Z,1.85
2023-01-28T14:32:55.200Z,1.84
2023-01-28T14:35:31.459Z,1.84
2023-01-28T14:38:00.807Z,1.83
2023-01-28T14:40:30.257Z,1.81
2023-01-28T14:42:59.334Z,1.77
2023-01-28T14:45:37.828Z,1.72
2023-01-28T14:48:39.856Z,1.66
2023-01-28T14:51:26.486Z,1.60
2023-01-28T14:54:04.958Z,1.57
2023-01-28T14:56:36.637Z,1.55
2023-01-28T14:59:22.486Z,1.54
2023-01-28T15:01:56.944Z,1.54
2023-01-28T15:04:26.032Z,1.51
2023-01-28T15:06:54.375Z,1.49
2023-01-28T15:09:23.098Z,1.49
2023-01-28T15:11:54.993Z,1.49
2023-01-28T15:14:28.714Z,1.49
2023-01-28T15:16:57.010Z,1.47
2023-01-28T15:19:35.213Z,1.48
2023-01-28T15:22:05.850Z,1.47
2023-01-28T15:24:54.192Z,1.45
2023-01-28T15:27:29.195Z,1.43
2023-01-28T15:29:59.797Z,1.43
2023-01-28T15:32:30.947Z,1.43
2023-01-28T15:35:01.283Z,1.41
2023-01-28T15:37:29.343Z,1.38
2023-01-28T15:40:21.610Z,1.33
2023-01-28T15:42:51.772Z,1.28
2023-01-28T15:45:22.942Z,1.22
2023-01-28T15:47:51.995Z,1.20
2023-01-28T15:50:25.349Z,1.19
2023-01-28T15:52:55.577Z,1.15
2023-01-28T15:55:26.723Z,1.13
2023-01-28T15:57:54.992Z,1.12
2023-01-28T16:00:25.222Z,1.10
2023-01-28T16:02:55.399Z,1.09
2023-01-28T16:05:31.206Z,1.10
2023-01-28T16:08:03.029Z,1.11
2023-01-28T16:10:31.181Z,1.12
2023-01-28T16:13:14.743Z,1.13
2023-01-28T16:15:51.541Z,1.14
2023-01-28T16:18:37.219Z,1.14
2023-01-28T16:21:10.187Z,1.12
2023-01-28T16:23:39.981Z,1.11
2023-01-28T16:26:24.192Z,1.10
2023-01-28T16:28:52.407Z,1.04
2023-01-28T16:31:21.341Z,0.99
2023-01-28T16:33:49.477Z,0.95
2023-01-28T16:36:19.478Z,0.96
2023-01-28T16:38:47.514Z,0.99
2023-01-28T16:41:28.822Z,1.00
2023-01-28T16:43:56.862Z,0.98
2023-01-28T16:46:27.517Z,0.98
2023-01-28T16:48:55.471Z,0.99
2023-01-28T16:51:23.502Z,1.00
2023-01-28T16:53:51.777Z,1.02
2023-01-28T16:59:16.235Z,1.01
2023-01-28T17:01:45.161Z,0.99
2023-01-28T17:04:13.789Z,0.98
2023-01-28T17:06:44.758Z,0.96
2023-01-28T17:09:14.596Z,0.96
2023-01-28T17:11:43.232Z,0.94
2023-01-28T17:14:11.995Z,0.93
2023-01-28T17:16:40.636Z,0.89
2023-01-28T17:19:08.764Z,0.87
2023-01-28T17:21:36.803Z,0.85
2023-01-28T17:24:05.476Z,0.86
2023-01-28T17:26:35.498Z,0.88
2023-01-28T17:29:08.062Z,0.92
2023-01-28T17:31:36.810Z,0.95
2023-01-28T17:34:07.049Z,0.96
2023-01-28T17:36:35.881Z,0.99
2023-01-28T17:39:05.828Z,1.01
2023-01-28T17:41:34.111Z,1.03
2023-01-28T17:44:02.108Z,1.07
2023-01-28T17:46:30.131Z,1.10
2023-01-28T17:48:58.224Z,1.14
2023-01-28T17:51:26.302Z,1.15
2023-01-28T17:53:54.495Z,1.15
2023-01-28T17:56:26.023Z,1.15
2023-01-28T17:58:56.303Z,1.13
2023-01-28T18:01:26.046Z,1.11
2023-01-28T18:03:55.093Z,1.09
2023-01-28T18:06:23.311Z,1.07
2023-01-28T18:08:51.328Z,1.04
2023-01-28T18:11:20.511Z,1.01
2023-01-28T18:13:48.961Z,0.99
2023-01-28T18:16:22.002Z,0.97
2023-01-28T18:18:53.033Z,0.95
2023-01-28T18:21:52.271Z,0.92
2023-01-28T18:24:24.337Z,0.89
2023-01-28T18:26:55.659Z,0.90
2023-01-28T18:29:27.936Z,0.92
2023-01-28T18:31:58.217Z,0.92
2023-01-28T18:34:34.118Z,0.89
2023-01-28T18:37:03.701Z,0.87
2023-01-28T18:39:31.871Z,0.85
2023-01-28T18:42:00.734Z,0.84
2023-01-28T18:44:31.491Z,0.82
2023-01-28T18:46:59.690Z,0.82
2023-01-28T18:49:27.743Z,0.78
2023-01-28T18:51:56.016Z,0.74
2023-01-28T18:54:24.892Z,0.71
2023-01-28T18:56:52.876Z,0.68
2023-01-28T18:59:22.014Z,0.68
2023-01-28T19:01:50.490Z,0.69
2023-01-28T19:04:22.300Z,0.69
2023-01-28T19:06:58.632Z,0.68
2023-01-28T19:09:26.604Z,0.65
2023-01-28T19:11:55.851Z,0.63
2023-01-28T19:14:24.760Z,0.61
2023-01-28T19:16:52.789Z,0.57
2023-01-28T19:19:20.661Z,0.53
2023-01-28T19:21:48.707Z,0.50
2023-01-28T19:24:16.654Z,0.48
2023-01-28T19:26:45.001Z,0.48
2023-01-28T19:29:15.610Z,0.49
2023-01-28T19:31:44.853Z,0.50
2023-01-28T19:34:16.608Z,0.49
2023-01-28T19:36:44.990Z,0.50
2023-01-28T19:39:13.822Z,0.49
2023-01-28T19:41:41.763Z,0.48
2023-01-28T19:44:10.391Z,0.49
2023-01-28T19:46:41.651Z,0.48
2023-01-28T19:49:10.710Z,0.45
2023-01-28T19:51:45.039Z,0.45
2023-01-28T19:54:13.629Z,0.44
2023-01-28T19:56:43.572Z,0.43
2023-01-28T19:59:11.656Z,0.43
2023-01-28T20:01:39.772Z,0.44
2023-01-28T20:04:07.743Z,0.44
2023-01-28T20:06:36.604Z,0.45
2023-01-28T20:09:17.890Z,0.44
2023-01-28T20:11:45.707Z,0.41
2023-01-28T20:14:18.679Z,0.35
2023-01-28T20:16:51.306Z,0.32
2023-01-28T20:19:22.182Z,0.30
2023-01-28T20:21:52.339Z,0.30
2023-01-28T20:24:22.238Z,0.30
2023-01-28T20:26:50.290Z,0.29
2023-01-28T20:29:22.485Z,0.28
2023-01-28T20:32:09.079Z,0.24
2023-01-28T20:34:38.964Z,0.21
2023-01-28T20:37:10.304Z,0.18
2023-01-28T20:39:38.191Z,0.18
2023-01-28T20:42:09.281Z,0.19
2023-01-28T20:44:37.148Z,0.20
2023-01-28T20:47:05.501Z,0.18
2023-01-28T20:49:33.420Z,0.18
2023-01-28T20:52:01.373Z,0.15
2023-01-28T20:54:29.355Z,0.13
2023-01-28T20:56:57.462Z,0.13
2023-01-28T20:59:25.822Z,0.13
2023-01-28T21:01:53.951Z,0.11
2023-01-28T21:04:21.893Z,0.08
2023-01-28T21:06:49.819Z,0.05
2023-01-28T21:09:17.674Z,0.04
2023-01-28T21:11:45.519Z,0.02
2023-01-28T21:14:16.969Z,0.01
2023-01-28T21:16:45.067Z,-0.00
2023-01-28T21:19:13.006Z,-0.04
2023-01-28T21:21:42.977Z,-0.06
2023-01-28T21:24:11.991Z,-0.09
2023-01-28T21:26:40.287Z,-0.11
2023-01-28T21:29:08.506Z,-0.16
2023-01-28T21:31:36.509Z,-0.19
2023-01-28T21:34:04.407Z,-0.20
2023-01-28T21:36:34.341Z,-0.19
2023-01-28T21:39:03.501Z,-0.20
2023-01-28T21:41:32.069Z,-0.23
2023-01-28T21:44:00.087Z,-0.27
2023-01-28T21:46:32.848Z,-0.29
2023-01-28T21:49:02.943Z,-0.28
2023-01-28T21:51:46.428Z,-0.27
2023-01-28T21:54:19.293Z,-0.25
2023-01-28T21:56:49.071Z,-0.27
2023-01-28T21:59:30.819Z,-0.30
2023-01-28T22:01:59.169Z,-0.33
2023-01-28T22:04:33.680Z,-0.36
2023-01-28T22:07:03.096Z,-0.38
2023-01-28T22:09:34.109Z,-0.41
2023-01-28T22:12:03.787Z,-0.42
2023-01-28T22:14:31.881Z,-0.44
2023-01-28T22:17:00.172Z,-0.46
2023-01-28T22:19:28.143Z,-0.48
2023-01-28T22:21:56.132Z,-0.48
2023-01-28T22:24:24.920Z,-0.48
2023-01-28T22:26:54.330Z,-0.47
2023-01-28T22:29:23.722Z,-0.45
2023-01-28T22:31:53.462Z,-0.43
2023-01-28T22:34:22.328Z,-0.43
2023-01-28T22:36:51.386Z,-0.43
2023-01-28T22:39:19.633Z,-0.43
2023-01-28T22:41:47.910Z,-0.43
2023-01-28T22:44:16.137Z,-0.42
2023-01-28T22:46:44.120Z,-0.44
2023-01-28T22:49:12.409Z,-0.45
2023-01-28T22:51:40.499Z,-0.47
2023-01-28T22:54:10.801Z,-0.50
2023-01-28T22:56:38.719Z,-0.50
2023-01-28T22:59:06.797Z,-0.50
2023-01-28T23:01:35.834Z,-0.48
2023-01-28T23:04:04.079Z,-0.48
2023-01-28T23:06:32.472Z,-0.48
2023-01-28T23:09:00.292Z,-0.49
2023-01-28T23:11:28.743Z,-0.51
2023-01-28T23:14:21.277Z,-0.51
2023-01-28T23:17:08.818Z,-0.51
2023-01-28T23:19:55.333Z,-0.50
2023-01-28T23:22:45.506Z,-0.49
2023-01-28T23:25:13.415Z,-0.47
2023-01-28T23:27:41.522Z,-0.44
2023-01-28T23:30:10.502Z,-0.41
2023-01-28T23:32:48.514Z,-0.40
2023-01-28T23:35:18.942Z,-0.38
2023-01-28T23:37:47.986Z,-0.36
2023-01-28T23:40:17.131Z,-0.35
2023-01-28T23:42:49.634Z,-0.33
2023-01-28T23:45:25.378Z,-0.31
2023-01-28T23:47:53.359Z,-0.28
2023-01-28T23:50:21.247Z,-0.23
2023-01-28T23:52:49.348Z,-0.19
2023-01-28T23:55:17.313Z,-0.16
2023-01-28T23:57:45.219Z,-0.12
